createdAt,value
2018-04-19T00:00:04.790Z,22.25
2018-04-19T00:02:31.142Z,22.26
2018-04-19T00:04:57.597Z,22.28
2018-04-19T00:07:23.957Z,22.25
2018-04-19T00:09:50.387Z,22.23
2018-04-19T00:12:16.761Z,22.22
2018-04-19T00:14:43.189Z,22.25
2018-04-19T00:17:09.653Z,22.23
2018-04-19T00:19:36.048Z,22.20
2018-04-19T00:22:02.465Z,22.20
2018-04-19T00:24:28.877Z,22.20
2018-04-19T00:26:55.352Z,22.22
2018-04-19T00:29:21.895Z,22.21
2018-04-19T00:31:48.277Z,22.21
2018-04-19T00:34:14.682Z,22.20
2018-04-19T00:36:41.205Z,22.21
2018-04-19T00:39:07.692Z,22.29
2018-04-19T00:41:34.069Z,22.29
2018-04-19T00:44:00.455Z,22.31
2018-04-19T00:46:26.981Z,22.28
2018-04-19T00:48:53.363Z,22.27
2018-04-19T00:51:19.797Z,22.27
2018-04-19T00:53:46.280Z,22.23
2018-04-19T00:56:12.715Z,22.23
2018-04-19T00:58:39.138Z,22.25
2018-04-19T01:01:05.531Z,22.22
2018-04-19T01:03:31.939Z,22.29
2018-04-19T01:05:58.314Z,22.17
2018-04-19T01:08:24.793Z,22.17
2018-04-19T01:10:51.407Z,21.91
2018-04-19T01:13:17.820Z,22.02
2018-04-19T01:15:44.188Z,21.98
2018-04-19T01:18:10.550Z,22.09
2018-04-19T01:20:36.907Z,22.04
2018-04-19T01:23:03.301Z,22.10
2018-04-19T01:25:29.749Z,22.20
2018-04-19T01:27:56.675Z,22.06
2018-04-19T01:30:23.197Z,22.13
2018-04-19T01:32:49.551Z,22.18
2018-04-19T01:35:15.936Z,22.03
2018-04-19T01:37:42.432Z,22.05
2018-04-19T01:40:08.848Z,22.08
2018-04-19T01:42:35.225Z,22.09
2018-04-19T01:45:01.595Z,22.11
2018-04-19T01:47:27.967Z,22.20
2018-04-19T01:49:54.348Z,22.14
2018-04-19T01:52:20.835Z,22.21
2018-04-19T01:54:47.203Z,22.24
2018-04-19T01:57:13.645Z,22.20
2018-04-19T01:59:40.005Z,22.22
2018-04-19T02:02:06.499Z,22.27
2018-04-19T02:04:32.871Z,22.19
2018-04-19T02:06:59.304Z,22.21
2018-04-19T02:09:25.859Z,22.13
2018-04-19T02:11:52.236Z,22.14
2018-04-19T02:14:18.719Z,22.18
2018-04-19T02:16:45.137Z,22.18
2018-04-19T02:19:11.532Z,22.14
2018-04-19T02:21:37.959Z,22.16
2018-04-19T02:24:04.392Z,22.22
2018-04-19T02:26:30.768Z,22.19
2018-04-19T02:28:57.188Z,22.26
2018-04-19T02:31:23.802Z,22.32
2018-04-19T02:33:50.255Z,22.28
2018-04-19T02:36:16.685Z,22.23
2018-04-19T02:38:43.104Z,22.20
2018-04-19T02:41:09.477Z,22.20
2018-04-19T02:43:35.888Z,22.26
2018-04-19T02:46:02.266Z,22.27
2018-04-19T02:48:28.688Z,22.26
2018-04-19T02:50:55.053Z,22.22
2018-04-19T02:53:21.527Z,22.23
2018-04-19T02:55:47.914Z,22.28
2018-04-19T02:58:14.475Z,22.23
2018-04-19T03:00:40.868Z,22.25
2018-04-19T03:03:07.236Z,22.25
2018-04-19T03:05:33.671Z,22.16
2018-04-19T03:08:00.070Z,22.09
2018-04-19T03:10:26.429Z,22.11
2018-04-19T03:12:52.810Z,22.16
2018-04-19T03:15:19.124Z,22.21
2018-04-19T03:17:45.546Z,22.29
2018-04-19T03:20:12.072Z,22.31
2018-04-19T03:22:38.429Z,22.36
2018-04-19T03:25:04.770Z,22.38
2018-04-19T03:27:31.136Z,22.48
2018-04-19T03:29:57.840Z,22.47
2018-04-19T03:32:24.208Z,22.46
2018-04-19T03:34:50.739Z,22.55
2018-04-19T03:37:17.161Z,22.54
2018-04-19T03:39:43.510Z,22.55
2018-04-19T03:42:09.896Z,22.60
2018-04-19T03:44:36.277Z,22.70
2018-04-19T03:47:02.683Z,22.68
2018-04-19T03:49:29.214Z,22.63
2018-04-19T03:51:55.546Z,22.54
2018-04-19T03:54:22.163Z,22.34
2018-04-19T03:56:48.673Z,22.34
2018-04-19T03:59:15.117Z,22.34
2018-04-19T04:01:41.453Z,22.23
2018-04-19T04:04:07.942Z,22.20
2018-04-19T04:06:35.496Z,22.19
2018-04-19T04:09:01.936Z,22.12
2018-04-19T04:11:28.324Z,22.20
2018-04-19T04:13:54.670Z,22.32
2018-04-19T04:16:21.052Z,22.12
2018-04-19T04:18:47.479Z,22.04
2018-04-19T04:21:13.817Z,22.18
2018-04-19T04:23:40.225Z,21.98
2018-04-19T04:26:06.655Z,22.18
2018-04-19T04:28:33.013Z,22.49
2018-04-19T04:30:59.621Z,22.67
2018-04-19T04:33:26.146Z,22.70
2018-04-19T04:35:52.484Z,22.50
2018-04-19T04:38:18.823Z,22.57
2018-04-19T04:40:45.377Z,22.73
2018-04-19T04:43:11.787Z,22.65
2018-04-19T04:45:38.375Z,22.88
2018-04-19T04:48:04.784Z,22.90
2018-04-19T04:50:31.139Z,22.82
2018-04-19T04:52:57.668Z,22.75
2018-04-19T04:55:24.016Z,22.95
2018-04-19T04:57:50.727Z,23.05
2018-04-19T05:00:17.204Z,23.20
2018-04-19T05:02:43.626Z,23.25
2018-04-19T05:05:10.008Z,23.12
2018-04-19T05:07:36.462Z,23.28
2018-04-19T05:10:02.795Z,23.51
2018-04-19T05:12:29.485Z,23.68
2018-04-19T05:14:55.938Z,23.44
2018-04-19T05:17:22.466Z,23.57
2018-04-19T05:19:48.803Z,23.57
2018-04-19T05:22:15.148Z,23.42
2018-04-19T05:24:41.706Z,23.38
2018-04-19T05:27:08.134Z,23.25
2018-04-19T05:29:34.513Z,23.01
2018-04-19T05:32:01.120Z,22.95
2018-04-19T05:34:27.510Z,23.07
2018-04-19T05:36:53.984Z,23.21
2018-04-19T05:39:20.383Z,23.25
2018-04-19T05:41:46.735Z,23.18
2018-04-19T05:44:13.118Z,23.29
2018-04-19T05:46:39.722Z,23.23
2018-04-19T05:49:06.295Z,23.68
2018-04-19T05:51:33.179Z,24.04
2018-04-19T05:53:59.609Z,23.85
2018-04-19T05:56:26.048Z,23.66
2018-04-19T05:58:52.656Z,23.80
2018-04-19T06:01:19.426Z,23.82
2018-04-19T06:03:46.119Z,24.04
2018-04-19T06:06:12.548Z,24.11
2018-04-19T06:08:38.943Z,24.23
2018-04-19T06:11:05.373Z,24.13
2018-04-19T06:13:31.719Z,24.01
2018-04-19T06:15:58.165Z,24.33
2018-04-19T06:18:24.498Z,24.23
2018-04-19T06:20:50.895Z,23.98
2018-04-19T06:23:17.311Z,23.97
2018-04-19T06:25:43.648Z,24.13
2018-04-19T06:28:10.029Z,24.06
2018-04-19T06:30:36.396Z,24.29
2018-04-19T06:33:02.868Z,24.38
2018-04-19T06:35:29.182Z,24.34
2018-04-19T06:37:55.661Z,24.32
2018-04-19T06:40:22.093Z,24.48
2018-04-19T06:42:48.450Z,24.57
2018-04-19T06:45:14.915Z,24.19
2018-04-19T06:47:41.353Z,24.30
2018-04-19T06:52:29.130Z,24.46
2018-04-19T06:54:55.822Z,24.50
2018-04-19T06:57:22.304Z,24.13
2018-04-19T06:59:49.139Z,24.28
2018-04-19T07:02:15.788Z,24.54
2018-04-19T07:07:15.052Z,24.55
2018-04-19T07:09:41.700Z,24.50
2018-04-19T07:12:08.197Z,24.70
2018-04-19T07:14:34.836Z,24.45
2018-04-19T07:17:01.402Z,24.51
2018-04-19T07:19:28.286Z,24.30
2018-04-19T07:21:55.427Z,24.06
2018-04-19T07:24:21.945Z,24.35
2018-04-19T07:26:48.319Z,24.48
2018-04-19T07:29:14.753Z,24.61
2018-04-19T07:31:42.221Z,24.85
2018-04-19T07:34:08.808Z,24.72
2018-04-19T07:36:36.827Z,24.47
2018-04-19T07:39:03.762Z,24.24
2018-04-19T07:41:30.186Z,23.97
2018-04-19T07:43:56.993Z,24.43
2018-04-19T07:46:23.476Z,24.50
2018-04-19T07:48:50.493Z,24.76
2018-04-19T07:51:17.430Z,24.74
2018-04-19T07:53:43.945Z,24.60
2018-04-19T07:56:10.785Z,24.48
2018-04-19T07:58:37.336Z,24.18
2018-04-19T08:01:04.010Z,24.68
2018-04-19T08:03:30.878Z,24.68
2018-04-19T08:05:57.355Z,24.90
2018-04-19T08:08:23.890Z,24.85
2018-04-19T08:10:50.860Z,24.51
2018-04-19T08:13:17.946Z,24.68
2018-04-19T08:15:44.458Z,24.93
2018-04-19T08:18:11.021Z,24.85
2018-04-19T08:20:38.270Z,24.66
2018-04-19T08:23:05.155Z,24.75
2018-04-19T08:25:32.606Z,24.80
2018-04-19T08:27:59.313Z,25.03
2018-04-19T08:30:26.111Z,24.53
2018-04-19T08:32:52.740Z,24.51
2018-04-19T08:35:19.415Z,24.39
2018-04-19T08:37:46.083Z,24.40
2018-04-19T08:40:13.928Z,24.31
2018-04-19T08:42:40.531Z,24.08
2018-04-19T08:45:08.055Z,24.32
2018-04-19T08:47:34.506Z,24.28
2018-04-19T08:50:01.005Z,24.53
2018-04-19T08:52:28.101Z,24.54
2018-04-19T08:54:55.809Z,24.26
2018-04-19T08:57:22.310Z,24.13
2018-04-19T08:59:49.739Z,24.51
2018-04-19T09:02:16.144Z,24.36
2018-04-19T09:04:42.872Z,24.38
2018-04-19T09:07:09.718Z,24.47
2018-04-19T09:09:36.409Z,24.36
2018-04-19T09:12:02.844Z,24.23
2018-04-19T09:14:29.555Z,24.12
2018-04-19T09:16:56.200Z,23.98
2018-04-19T09:19:23.104Z,24.09
2018-04-19T09:21:49.609Z,24.20
2018-04-19T09:24:17.216Z,24.31
2018-04-19T09:26:43.992Z,24.53
2018-04-19T09:29:10.410Z,24.35
2018-04-19T09:31:37.037Z,24.66
2018-04-19T09:34:03.446Z,24.72
2018-04-19T09:36:30.296Z,24.83
2018-04-19T09:38:56.733Z,24.89
2018-04-19T09:41:23.665Z,24.79
2018-04-19T09:43:50.151Z,24.53
2018-04-19T09:46:16.500Z,24.31
2018-04-19T09:48:42.918Z,24.60
2018-04-19T09:51:09.348Z,24.47
2018-04-19T09:53:35.725Z,24.36
2018-04-19T09:56:02.225Z,24.57
2018-04-19T09:58:28.638Z,24.54
2018-04-19T10:00:55.467Z,24.43
2018-04-19T10:03:21.876Z,24.95
2018-04-19T10:05:48.246Z,24.95
2018-04-19T10:08:14.601Z,24.76
2018-04-19T10:10:41.007Z,24.59
2018-04-19T10:13:07.605Z,24.49
2018-04-19T10:15:34.059Z,24.75
2018-04-19T10:18:00.402Z,24.48
2018-04-19T10:20:26.810Z,24.63
2018-04-19T10:22:53.157Z,24.64
2018-04-19T10:25:19.511Z,24.39
2018-04-19T10:27:45.930Z,24.38
2018-04-19T10:30:12.297Z,24.45
2018-04-19T10:32:38.769Z,24.46
2018-04-19T10:35:06.105Z,24.39
2018-04-19T10:37:32.589Z,24.70
2018-04-19T10:39:59.013Z,24.54
2018-04-19T10:42:25.396Z,24.41
2018-04-19T10:44:51.724Z,24.53
2018-04-19T10:47:18.127Z,24.38
2018-04-19T10:49:44.466Z,24.78
2018-04-19T10:52:10.871Z,24.70
2018-04-19T10:54:37.222Z,24.64
2018-04-19T10:57:03.658Z,25.12
2018-04-19T10:59:30.251Z,25.02
2018-04-19T11:01:56.597Z,24.83
2018-04-19T11:04:24.032Z,24.64
2018-04-19T11:06:50.557Z,24.58
2018-04-19T11:09:17.143Z,24.51
2018-04-19T11:11:43.801Z,24.59
2018-04-19T11:14:10.675Z,24.39
2018-04-19T11:16:37.329Z,24.73
2018-04-19T11:19:04.107Z,24.72
2018-04-19T11:21:30.713Z,24.74
2018-04-19T11:23:57.167Z,24.74
2018-04-19T11:26:24.026Z,24.86
2018-04-19T11:28:50.786Z,24.71
2018-04-19T11:31:17.172Z,24.50
2018-04-19T11:33:43.592Z,24.55
2018-04-19T11:36:10.112Z,24.73
2018-04-19T11:38:36.752Z,24.78
2018-04-19T11:41:05.543Z,25.07
2018-04-19T11:43:32.251Z,25.02
2018-04-19T11:45:59.066Z,24.77
2018-04-19T11:48:25.565Z,24.76
2018-04-19T11:50:52.352Z,24.85
2018-04-19T11:53:18.906Z,24.80
2018-04-19T11:55:45.624Z,24.80
2018-04-19T11:58:12.336Z,24.75
2018-04-19T12:00:38.970Z,24.80
2018-04-19T12:03:05.592Z,24.87
2018-04-19T12:05:32.785Z,24.77
2018-04-19T12:07:59.865Z,24.79
2018-04-19T12:10:26.581Z,24.56
2018-04-19T12:12:53.067Z,24.79
2018-04-19T12:15:19.545Z,24.80
2018-04-19T12:17:46.919Z,24.73
2018-04-19T12:20:13.516Z,25.09
2018-04-19T12:22:40.384Z,24.73
2018-04-19T12:25:07.431Z,25.02
2018-04-19T12:27:33.959Z,24.75
2018-04-19T12:30:00.522Z,24.83
2018-04-19T12:32:26.995Z,24.88
2018-04-19T12:34:53.458Z,24.83
2018-04-19T12:37:20.237Z,24.72
2018-04-19T12:39:46.716Z,24.61
2018-04-19T12:42:13.063Z,24.90
2018-04-19T12:44:39.531Z,24.79
2018-04-19T12:47:05.911Z,24.87
2018-04-19T12:49:32.308Z,24.70
2018-04-19T12:51:58.731Z,24.74
2018-04-19T12:54:25.140Z,24.76
2018-04-19T12:56:51.534Z,25.04
2018-04-19T12:59:17.953Z,24.91
2018-04-19T13:01:44.542Z,24.82
2018-04-19T13:04:12.439Z,24.84
2018-04-19T13:06:38.850Z,24.75
2018-04-19T13:09:05.374Z,24.75
2018-04-19T13:11:31.902Z,25.02
2018-04-19T13:13:58.269Z,25.30
2018-04-19T13:16:24.794Z,25.31
2018-04-19T13:18:51.147Z,25.40
2018-04-19T13:21:17.581Z,24.93
2018-04-19T13:23:43.945Z,24.92
2018-04-19T13:26:10.325Z,24.97
2018-04-19T13:28:36.730Z,25.16
2018-04-19T13:31:03.130Z,25.05
2018-04-19T13:33:29.487Z,25.02
2018-04-19T13:35:55.825Z,24.76
2018-04-19T13:38:22.151Z,24.71
2018-04-19T13:40:48.535Z,24.68
2018-04-19T13:43:15.105Z,24.70
2018-04-19T13:45:41.554Z,24.91
2018-04-19T13:48:07.914Z,25.10
2018-04-19T13:50:34.372Z,24.97
2018-04-19T13:53:00.827Z,24.92
2018-04-19T13:55:28.060Z,24.77
2018-04-19T13:57:54.434Z,25.01
2018-04-19T14:00:21.563Z,24.76
2018-04-19T14:02:49.010Z,24.73
2018-04-19T14:05:15.377Z,24.57
2018-04-19T14:07:41.855Z,24.73
2018-04-19T14:10:08.225Z,24.57
2018-04-19T14:12:34.742Z,24.53
2018-04-19T14:15:01.203Z,24.58
2018-04-19T14:17:27.570Z,24.53
2018-04-19T14:19:54.074Z,24.63
2018-04-19T14:22:20.659Z,24.55
2018-04-19T14:24:47.061Z,24.49
2018-04-19T14:27:13.441Z,24.50
2018-04-19T14:29:39.910Z,24.53
2018-04-19T14:32:06.339Z,24.60
2018-04-19T14:34:32.672Z,24.57
2018-04-19T14:36:59.053Z,24.57
2018-04-19T14:39:25.897Z,24.47
2018-04-19T14:41:53.039Z,24.42
2018-04-19T14:44:19.537Z,24.44
2018-04-19T14:46:45.967Z,24.40
2018-04-19T14:49:13.499Z,24.41
2018-04-19T14:51:40.887Z,24.41
2018-04-19T14:54:07.502Z,24.50
2018-04-19T14:56:33.876Z,24.36
2018-04-19T14:59:00.714Z,24.35
2018-04-19T15:01:27.133Z,24.32
2018-04-19T15:03:53.707Z,24.32
2018-04-19T15:06:20.503Z,24.29
2018-04-19T15:08:47.213Z,24.32
2018-04-19T15:11:13.600Z,24.26
2018-04-19T15:13:39.995Z,24.34
2018-04-19T15:16:06.423Z,24.30
2018-04-19T15:18:32.751Z,24.17
2018-04-19T15:20:59.319Z,24.10
2018-04-19T15:23:25.857Z,24.12
2018-04-19T15:25:52.293Z,24.14
2018-04-19T15:28:18.696Z,24.11
2018-04-19T15:30:45.034Z,24.09
2018-04-19T15:33:11.484Z,24.05
2018-04-19T15:35:37.865Z,24.09
2018-04-19T15:38:04.197Z,24.08
2018-04-19T15:40:30.625Z,23.98
2018-04-19T15:42:57.036Z,23.97
2018-04-19T15:45:23.417Z,24.11
2018-04-19T15:47:50.029Z,23.99
2018-04-19T15:50:16.373Z,24.12
2018-04-19T15:52:42.756Z,24.09
2018-04-19T15:55:09.181Z,24.12
2018-04-19T15:57:35.595Z,23.98
2018-04-19T16:00:01.952Z,24.00
2018-04-19T16:02:28.297Z,23.91
2018-04-19T16:04:54.684Z,23.89
2018-04-19T16:07:21.114Z,23.91
2018-04-19T16:09:47.491Z,23.90
2018-04-19T16:12:13.862Z,23.81
2018-04-19T16:14:40.377Z,23.83
2018-04-19T16:17:06.740Z,23.86
2018-04-19T16:19:33.131Z,23.89
2018-04-19T16:21:59.694Z,23.85
2018-04-19T16:24:26.037Z,23.76
2018-04-19T16:26:52.417Z,23.72
2018-04-19T16:29:18.831Z,23.80
2018-04-19T16:31:45.210Z,23.72
2018-04-19T16:34:11.543Z,23.76
2018-04-19T16:36:37.875Z,23.69
2018-04-19T16:39:04.248Z,23.69
2018-04-19T16:41:30.648Z,23.79
2018-04-19T16:43:56.977Z,23.62
2018-04-19T16:46:23.350Z,23.64
2018-04-19T16:48:49.712Z,23.69
2018-04-19T16:51:16.035Z,23.65
2018-04-19T16:53:42.388Z,23.57
2018-04-19T16:56:08.777Z,23.57
2018-04-19T16:58:35.180Z,23.54
2018-04-19T17:01:01.588Z,23.61
2018-04-19T17:03:27.909Z,23.55
2018-04-19T17:05:54.340Z,23.64
2018-04-19T17:08:20.721Z,23.67
2018-04-19T17:10:48.136Z,23.71
2018-04-19T17:13:14.485Z,23.73
2018-04-19T17:15:40.852Z,23.75
2018-04-19T17:18:07.243Z,23.80
2018-04-19T17:20:33.578Z,23.80
2018-04-19T17:22:59.985Z,23.94
2018-04-19T17:25:26.345Z,23.83
2018-04-19T17:27:52.671Z,23.86
2018-04-19T17:30:19.097Z,23.85
2018-04-19T17:32:45.467Z,23.87
2018-04-19T17:35:11.881Z,23.81
2018-04-19T17:37:38.249Z,23.88
2018-04-19T17:40:04.593Z,23.79
2018-04-19T17:42:30.936Z,23.82
2018-04-19T17:44:57.283Z,23.81
2018-04-19T17:47:23.622Z,23.86
2018-04-19T17:49:50.133Z,23.80
2018-04-19T17:52:16.468Z,23.85
2018-04-19T17:54:42.875Z,23.91
2018-04-19T17:57:09.254Z,23.87
2018-04-19T17:59:35.592Z,23.94
2018-04-19T18:02:01.975Z,23.90
2018-04-19T18:04:28.334Z,23.81
2018-04-19T18:06:54.652Z,23.76
2018-04-19T18:09:20.981Z,23.85
2018-04-19T18:11:47.372Z,23.75
2018-04-19T18:14:13.711Z,23.70
2018-04-19T18:16:40.096Z,23.69
2018-04-19T18:19:06.438Z,23.67
2018-04-19T18:21:32.756Z,23.61
2018-04-19T18:23:59.134Z,23.65
2018-04-19T18:26:25.533Z,23.66
2018-04-19T18:28:51.884Z,23.61
2018-04-19T18:31:18.204Z,23.61
2018-04-19T18:33:44.571Z,23.57
2018-04-19T18:36:10.940Z,23.73
2018-04-19T18:38:37.286Z,23.70
2018-04-19T18:41:03.664Z,23.69
2018-04-19T18:43:30.036Z,23.72
2018-04-19T18:45:56.495Z,23.71
2018-04-19T18:48:22.816Z,23.70
2018-04-19T18:50:49.224Z,23.68
2018-04-19T18:53:15.608Z,23.68
2018-04-19T18:55:41.934Z,23.67
2018-04-19T18:58:08.326Z,23.66
2018-04-19T19:00:34.647Z,23.64
2018-04-19T19:03:01.040Z,23.64
2018-04-19T19:05:27.368Z,23.61
2018-04-19T19:07:53.755Z,23.60
2018-04-19T19:10:20.079Z,23.60
2018-04-19T19:12:46.453Z,23.57
2018-04-19T19:15:12.801Z,23.55
2018-04-19T19:17:39.140Z,23.54
2018-04-19T19:20:05.518Z,23.54
2018-04-19T19:22:31.891Z,23.53
2018-04-19T19:24:58.244Z,23.54
2018-04-19T19:27:24.611Z,23.51
2018-04-19T19:29:50.936Z,23.50
2018-04-19T19:32:17.360Z,23.45
2018-04-19T19:34:43.786Z,23.47
2018-04-19T19:37:10.162Z,23.45
2018-04-19T19:39:36.556Z,23.44
2018-04-19T19:42:02.924Z,23.41
2018-04-19T19:44:29.432Z,23.41
2018-04-19T19:46:55.840Z,23.44
2018-04-19T19:49:22.160Z,23.40
2018-04-19T19:51:48.512Z,23.39
2018-04-19T19:54:14.906Z,23.36
2018-04-19T19:56:41.447Z,23.36
2018-04-19T19:59:07.906Z,23.34
2018-04-19T20:01:34.228Z,23.34
2018-04-19T20:04:00.561Z,23.32
2018-04-19T20:06:26.878Z,23.31
2018-04-19T20:08:53.216Z,23.31
2018-04-19T20:11:19.553Z,23.27
2018-04-19T20:13:45.868Z,23.27
2018-04-19T20:16:12.255Z,23.27
2018-04-19T20:18:38.592Z,23.26
2018-04-19T20:21:04.931Z,23.27
2018-04-19T20:23:31.262Z,23.23
2018-04-19T20:25:57.587Z,23.22
2018-04-19T20:28:23.907Z,23.21
2018-04-19T20:30:50.300Z,23.21
2018-04-19T20:33:16.699Z,23.18
2018-04-19T20:35:43.039Z,23.18
2018-04-19T20:38:09.432Z,23.18
2018-04-19T20:40:35.800Z,23.20
2018-04-19T20:43:02.175Z,23.16
2018-04-19T20:45:28.569Z,23.13
2018-04-19T20:47:54.944Z,23.13
2018-04-19T20:50:21.276Z,23.20
2018-04-19T20:52:47.686Z,23.14
2018-04-19T20:55:14.040Z,23.14
2018-04-19T20:57:40.478Z,23.11
2018-04-19T21:00:06.761Z,23.06
2018-04-19T21:02:33.130Z,23.08
2018-04-19T21:04:59.460Z,23.08
2018-04-19T21:07:25.925Z,23.08
2018-04-19T21:09:52.255Z,23.03
2018-04-19T21:12:18.644Z,23.05
2018-04-19T21:14:44.952Z,23.06
2018-04-19T21:17:11.276Z,23.05
2018-04-19T21:19:37.644Z,23.02
2018-04-19T21:22:03.976Z,22.99
2018-04-19T21:24:30.346Z,23.01
2018-04-19T21:26:56.703Z,22.99
2018-04-19T21:29:23.070Z,22.98
2018-04-19T21:31:49.428Z,22.97
2018-04-19T21:34:15.795Z,22.96
2018-04-19T21:36:42.217Z,22.96
2018-04-19T21:39:08.532Z,22.93
2018-04-19T21:41:34.883Z,22.93
2018-04-19T21:44:01.206Z,22.93
2018-04-19T21:46:27.595Z,22.91
2018-04-19T21:48:53.908Z,22.90
2018-04-19T21:51:20.288Z,22.91
2018-04-19T21:53:46.599Z,22.90
2018-04-19T21:56:12.924Z,22.91
2018-04-19T21:58:39.249Z,22.90
2018-04-19T22:01:05.608Z,22.88
2018-04-19T22:03:31.988Z,22.85
2018-04-19T22:05:58.319Z,22.83
2018-04-19T22:08:24.692Z,22.84
2018-04-19T22:10:51.021Z,22.83
2018-04-19T22:13:17.347Z,22.82
2018-04-19T22:15:43.703Z,22.81
2018-04-19T22:18:10.073Z,22.79
2018-04-19T22:20:36.474Z,22.79
2018-04-19T22:23:02.851Z,22.80
2018-04-19T22:25:29.165Z,22.82
2018-04-19T22:27:55.625Z,22.78
2018-04-19T22:30:21.944Z,22.77
2018-04-19T22:32:48.274Z,22.79
2018-04-19T22:35:14.641Z,22.76
2018-04-19T22:37:40.984Z,22.77
2018-04-19T22:40:07.308Z,22.77
2018-04-19T22:42:33.628Z,22.72
2018-04-19T22:44:59.964Z,22.70
2018-04-19T22:47:26.285Z,22.72
2018-04-19T22:49:52.631Z,22.72
2018-04-19T22:52:18.974Z,22.71
2018-04-19T22:54:45.300Z,22.71
2018-04-19T22:57:11.761Z,22.69
2018-04-19T22:59:38.093Z,22.68
2018-04-19T23:02:04.485Z,22.69
2018-04-19T23:04:30.811Z,22.72
2018-04-19T23:06:57.215Z,22.70
2018-04-19T23:09:23.615Z,22.69
2018-04-19T23:11:49.948Z,22.66
2018-04-19T23:14:16.360Z,22.66
2018-04-19T23:16:42.680Z,22.65
2018-04-19T23:19:09.019Z,22.62
2018-04-19T23:21:35.345Z,22.62
2018-04-19T23:24:01.687Z,22.61
2018-04-19T23:26:28.008Z,22.60
2018-04-19T23:28:54.385Z,22.61
2018-04-19T23:31:20.722Z,22.61
2018-04-19T23:33:47.075Z,22.62
2018-04-19T23:36:13.422Z,22.64
2018-04-19T23:38:39.884Z,22.61
2018-04-19T23:41:06.214Z,22.58
2018-04-19T23:43:32.593Z,22.58
2018-04-19T23:45:58.925Z,22.61
2018-04-19T23:48:25.262Z,22.57
2018-04-19T23:50:51.596Z,22.55
2018-04-19T23:53:18.051Z,22.54
2018-04-19T23:55:44.431Z,22.55
2018-04-19T23:58:10.754Z,22.54
